Time;durP1;ratioP1;P1;durP2;ratioP2;P2;SDS_P1;SDS_P2;PMS_P1;PMS_P2;Temp;Humidity;BMP_temperature;BMP_pressure;BME280_temperature;BME280_humidity;BME280_pressure;Samples;Min_cycle;Max_cycle;Signal;HPM_P1;HPM_P2
2022/11/02 00:00:29;;;;;;;8.25;5.63;;;;;;;11.94;82.14;98731.69;4971178;28;20067;-82
2022/11/02 00:02:55;;;;;;;7.35;5.78;;;;;;;12.01;82.23;98735.16;4971577;28;20089;-82
2022/11/02 00:05:24;;;;;;;10.40;6.20;;;;;;;12.00;82.50;98733.56;4969500;28;20780;-82
2022/11/02 00:07:51;;;;;;;8.43;6.57;;;;;;;12.05;82.70;98727.69;4970705;28;20479;-82
2022/11/02 00:10:21;;;;;;;9.82;7.07;;;;;;;12.10;83.04;98735.81;4970576;28;20101;-82
2022/11/02 00:12:48;;;;;;;8.73;6.53;;;;;;;12.09;82.41;98720.25;4970327;28;20035;-82
2022/11/02 00:15:14;;;;;;;8.57;6.22;;;;;;;12.15;82.67;98724.72;4969852;28;20458;-82
2022/11/02 00:17:45;;;;;;;9.90;6.47;;;;;;;12.14;82.21;98712.59;4970734;28;20053;-83
2022/11/02 00:20:15;;;;;;;8.40;5.57;;;;;;;12.16;82.18;98726.34;4967943;28;20030;-83
2022/11/02 00:22:43;;;;;;;9.90;6.70;;;;;;;12.16;82.40;98723.72;4970768;28;20037;-83
2022/11/02 00:25:13;;;;;;;10.38;6.78;;;;;;;12.19;82.33;98723.34;4970735;28;20030;-82
2022/11/02 00:27:41;;;;;;;10.77;6.60;;;;;;;12.22;82.73;98730.81;4970587;28;20101;-83
2022/11/02 00:30:08;;;;;;;9.93;6.88;;;;;;;12.17;82.37;98728.78;4970226;28;20050;-83
2022/11/02 00:32:33;;;;;;;11.18;7.07;;;;;;;12.21;82.71;98721.31;4969106;28;20403;-82
2022/11/02 00:34:59;;;;;;;11.63;6.93;;;;;;;12.21;82.67;98731.84;4970291;28;20081;-82
2022/11/02 00:37:24;;;;;;;9.02;7.32;;;;;;;12.18;82.69;98740.13;4985491;28;20114;-82
2022/11/02 00:39:50;;;;;;;10.75;7.10;;;;;;;12.15;82.91;98729.97;4967387;28;20027;-82
2022/11/02 00:42:15;;;;;;;9.27;6.78;;;;;;;12.15;82.69;98746.56;4969666;28;20039;-82
2022/11/02 00:44:41;;;;;;;11.52;7.45;;;;;;;12.20;83.00;98751.25;4968174;28;20403;-82
2022/11/02 00:47:07;;;;;;;11.40;7.13;;;;;;;12.20;82.92;98741.53;4970544;28;20066;-82
2022/11/02 00:49:32;;;;;;;11.80;7.75;;;;;;;12.14;82.37;98744.13;4967836;28;20117;-82
2022/11/02 00:51:58;;;;;;;9.88;6.35;;;;;;;12.16;83.38;98745.56;4970014;28;20616;-83
2022/11/02 00:54:23;;;;;;;8.55;5.85;;;;;;;12.15;82.28;98741.31;4970186;28;20109;-83
2022/11/02 00:56:49;;;;;;;8.80;5.88;;;;;;;12.12;81.48;98746.97;4970016;28;20031;-82
2022/11/02 00:59:14;;;;;;;10.27;7.10;;;;;;;11.99;82.52;98752.94;4969562;28;20054;-82
2022/11/02 01:01:46;;;;;;;10.35;7.20;;;;;;;12.00;83.13;98744.06;4970012;28;20042;-82
2022/11/02 01:04:16;;;;;;;12.00;7.65;;;;;;;12.01;83.30;98745.69;4968114;28;20042;-83
2022/11/02 01:06:43;;;;;;;10.25;8.48;;;;;;;12.01;83.50;98750.94;4969655;28;20034;-83
2022/11/02 01:09:10;;;;;;;8.05;6.50;;;;;;;12.01;82.77;98750.94;4969865;28;20454;-82
2022/11/02 01:11:36;;;;;;;13.15;8.18;;;;;;;11.99;83.92;98752.94;4970340;28;20479;-83
2022/11/02 01:14:02;;;;;;;14.07;8.32;;;;;;;11.96;83.50;98745.44;4969420;28;20045;-83
2022/11/02 01:16:28;;;;;;;15.27;8.25;;;;;;;11.94;83.66;98750.09;4969599;28;20572;-82
2022/11/02 01:18:55;;;;;;;10.95;8.10;;;;;;;11.96;83.71;98748.06;4969090;28;20041;-83
2022/11/02 01:21:22;;;;;;;13.07;8.25;;;;;;;11.97;83.64;98741.81;4969501;28;20049;-83
2022/11/02 01:23:48;;;;;;;10.68;7.95;;;;;;;11.98;83.49;98746.06;4969761;28;20136;-83
2022/11/02 01:26:14;;;;;;;10.38;7.43;;;;;;;11.95;83.71;98740.38;4969623;28;20442;-82
2022/11/02 01:28:40;;;;;;;11.82;8.20;;;;;;;12.00;83.66;98738.81;4969449;28;20026;-84
2022/11/02 01:31:07;;;;;;;9.20;7.30;;;;;;;11.98;84.14;98740.00;4967966;28;20073;-82
2022/11/02 01:33:33;;;;;;;10.82;7.97;;;;;;;12.01;83.87;98739.63;4969377;28;20097;-82
2022/11/02 01:36:04;;;;;;;10.73;7.75;;;;;;;11.96;83.34;98737.56;4968957;28;20113;-83
2022/11/02 01:38:31;;;;;;;11.52;7.78;;;;;;;11.94;83.80;98734.31;4969269;28;20031;-83
2022/11/02 01:40:57;;;;;;;12.60;7.72;;;;;;;11.91;83.37;98734.69;4969076;28;20525;-82
2022/11/02 01:43:36;;;;;;;10.27;7.63;;;;;;;11.92;83.71;98731.06;4969411;28;20047;-83
2022/11/02 01:46:12;;;;;;;10.50;6.97;;;;;;;11.97;83.76;98733.91;4977661;28;20034;-83
2022/11/02 01:48:46;;;;;;;8.85;7.05;;;;;;;11.94;83.35;98731.69;4969108;28;20058;-82
2022/11/02 01:51:24;;;;;;;12.23;7.72;;;;;;;11.91;83.27;98729.44;4968101;28;20403;-83
2022/11/02 01:53:53;;;;;;;12.23;7.20;;;;;;;11.91;nan;98737.31;4968474;28;20045;-83
2022/11/02 01:56:23;;;;;;;9.98;7.25;;;;;;;11.82;83.27;98725.34;4969077;28;20037;-82
2022/11/02 01:58:58;;;;;;;10.45;7.20;;;;;;;11.82;83.40;98730.59;4967431;28;20043;-83
2022/11/02 02:01:25;;;;;;;10.15;7.25;;;;;;;11.65;83.24;98719.53;4968936;28;20094;-83
2022/11/02 02:03:53;;;;;;;8.93;6.60;;;;;;;11.56;83.32;98730.34;4968720;28;20093;-83
2022/11/02 02:06:19;;;;;;;9.50;7.28;;;;;;;11.47;83.98;98735.75;4969241;28;20071;-83
2022/11/02 02:08:49;;;;;;;8.40;6.70;;;;;;;11.46;84.16;98725.44;4967569;28;20035;-82
2022/11/02 02:11:33;;;;;;;13.13;7.13;;;;;;;11.33;84.25;98723.50;4967748;28;20054;-82
2022/11/02 02:14:15;;;;;;;10.38;6.50;;;;;;;11.23;84.51;98723.84;4968516;28;20308;-83
2022/11/02 02:17:21;;;;;;;11.63;7.45;;;;;;;11.17;85.00;98719.34;4967400;28;20062;-83
2022/11/02 02:20:43;;;;;;;10.65;6.32;;;;;;;11.10;85.50;98726.34;4968344;28;20046;-83
2022/11/02 02:23:51;;;;;;;10.40;6.75;;;;;;;11.04;85.97;98723.66;4968762;28;20074;-83
2022/11/02 02:26:46;;;;;;;10.27;6.30;;;;;;;11.01;86.13;98705.66;4967629;28;20043;-82
2022/11/02 02:29:30;;;;;;;9.35;6.63;;;;;;;10.93;86.16;98717.09;4971949;28;20047;-83
2022/11/02 02:32:40;;;;;;;11.73;6.72;;;;;;;10.84;86.04;98705.88;4971670;28;21024;-83
2022/11/02 02:35:42;;;;;;;9.85;6.30;;;;;;;10.83;86.22;98712.13;4972818;28;20134;-82
2022/11/02 02:38:29;;;;;;;10.18;6.95;;;;;;;10.76;86.36;98700.75;4972254;28;20183;-83
2022/11/02 02:41:13;;;;;;;8.70;6.30;;;;;;;10.76;86.75;98700.75;4970673;28;20038;-83
2022/11/02 02:43:51;;;;;;;7.93;6.70;;;;;;;10.69;87.25;98698.06;4971697;28;20042;-83
2022/11/02 02:46:49;;;;;;;10.38;6.25;;;;;;;10.67;87.53;98699.22;4969602;28;20085;-83
2022/11/02 02:49:27;;;;;;;10.82;6.68;;;;;;;10.64;87.20;98695.19;4971209;28;20074;-83
2022/11/02 02:51:56;;;;;;;6.78;5.60;;;;;;;10.58;87.33;98693.28;4970884;28;20045;-83
2022/11/02 02:54:31;;;;;;;13.10;6.70;;;;;;;10.51;87.51;98696.84;4972305;28;20057;-83
2022/11/02 02:57:08;;;;;;;8.57;6.03;;;;;;;10.40;87.86;98698.13;4971082;28;20031;-82
2022/11/02 02:59:43;;;;;;;9.43;5.53;;;;;;;10.48;87.82;98698.00;4970037;28;20042;-83
2022/11/02 03:02:22;;;;;;;10.27;5.35;;;;;;;10.38;87.65;98687.84;4971521;28;20206;-83
2022/11/02 03:04:47;;;;;;;7.72;5.53;;;;;;;10.47;87.57;98698.19;4969587;28;20070;-83
2022/11/02 03:07:23;;;;;;;8.57;5.50;;;;;;;10.39;87.51;98694.69;4971762;28;20058;-83
2022/11/02 03:10:10;;;;;;;6.20;5.22;;;;;;;10.38;87.58;98692.25;4972079;28;20489;-83
2022/11/02 03:12:42;;;;;;;8.50;5.88;;;;;;;10.36;87.42;98687.19;4971865;28;20074;-83
2022/11/02 03:15:23;;;;;;;7.03;5.35;;;;;;;10.30;87.49;98698.41;4970594;28;20101;-82
2022/11/02 03:18:01;;;;;;;8.80;5.72;;;;;;;10.31;87.91;98689.53;4971271;28;20046;-83
2022/11/02 03:21:26;;;;;;;10.48;5.75;;;;;;;10.30;87.93;98695.78;4965364;28;20035;-83
2022/11/02 03:24:12;;;;;;;10.13;5.22;;;;;;;10.29;87.97;98691.53;4971391;28;20031;-82
2022/11/02 03:26:45;;;;;;;8.30;5.70;;;;;;;10.27;88.23;98704.03;4971229;28;20066;-83
2022/11/02 03:29:21;;;;;;;9.82;5.45;;;;;;;10.25;87.98;98700.75;4971426;28;20098;-82
2022/11/02 03:31:56;;;;;;;9.35;5.78;;;;;;;10.29;88.05;98694.16;4970774;28;20047;-83
2022/11/02 03:35:01;;;;;;;6.57;5.30;;;;;;;10.25;88.06;98689.47;4971471;28;20610;-83
2022/11/02 03:37:37;;;;;;;11.32;5.78;;;;;;;10.23;87.85;98696.66;4928927;29;20506;-82
2022/11/02 03:40:43;;;;;;;11.52;6.38;;;;;;;10.24;88.08;98704.38;4965866;28;20054;-83
2022/11/02 03:43:12;;;;;;;11.02;5.40;;;;;;;10.30;88.29;98710.69;4989084;28;20042;-82
2022/11/02 03:45:45;;;;;;;9.23;5.50;;;;;;;10.31;88.14;98705.25;4964835;28;20046;-83
2022/11/02 03:48:13;;;;;;;10.88;6.00;;;;;;;10.30;87.89;98719.38;4971087;28;20030;-83
2022/11/02 03:50:49;;;;;;;9.60;5.63;;;;;;;10.26;88.07;98707.66;4970408;28;20093;-83
2022/11/02 03:53:28;;;;;;;7.85;5.30;;;;;;;10.23;88.29;98707.16;4967790;28;20491;-83
2022/11/02 03:56:08;;;;;;;8.23;5.68;;;;;;;10.25;88.48;98695.50;4970864;28;20046;-83
2022/11/02 03:58:35;;;;;;;8.93;5.10;;;;;;;10.31;88.21;98710.50;4970667;28;20880;-83
2022/11/02 04:01:07;;;;;;;8.68;5.38;;;;;;;10.29;87.72;98709.88;4970878;28;20046;-83
2022/11/02 04:03:36;;;;;;;7.95;5.28;;;;;;;10.25;87.74;98715.66;4970869;28;20043;-83
2022/11/02 04:06:02;;;;;;;7.70;5.38;;;;;;;10.24;87.63;98714.84;4970969;28;20105;-83
2022/11/02 04:08:42;;;;;;;9.75;5.22;;;;;;;10.22;87.83;98695.84;4970504;28;20034;-83
2022/11/02 04:16:37;;;;;;;11.88;5.78;;;;;;;10.18;87.26;98700.63;4970778;28;20471;-82
2022/11/02 04:27:15;;;;;;;7.07;5.13;;;;;;;10.08;86.58;98713.22;4970926;28;20659;-83
2022/11/02 04:29:41;;;;;;;7.13;5.05;;;;;;;10.09;86.50;98716.66;4970831;28;20047;-82
2022/11/02 04:32:06;;;;;;;13.95;5.53;;;;;;;10.08;86.85;98717.66;4970185;28;20416;-82
2022/11/02 04:34:32;;;;;;;11.70;5.80;;;;;;;10.03;86.98;98709.53;4970868;28;20617;-83
2022/11/02 04:36:57;;;;;;;12.32;5.18;;;;;;;10.07;86.74;98708.16;4970966;28;20505;-82
2022/11/02 04:39:23;;;;;;;8.00;5.13;;;;;;;10.05;86.57;98710.16;4969931;28;20168;-82
2022/11/02 04:41:48;;;;;;;7.32;5.53;;;;;;;10.05;87.12;98704.91;4970337;28;20050;-83
2022/11/02 04:44:14;;;;;;;8.52;5.30;;;;;;;10.09;86.79;98714.03;4970275;28;20027;-82
2022/11/02 04:46:42;;;;;;;8.65;5.40;;;;;;;10.08;86.53;98709.81;4967212;28;20438;-83
2022/11/02 04:49:09;;;;;;;9.05;5.50;;;;;;;9.99;86.36;98716.09;4970181;28;20031;-82
2022/11/02 04:51:35;;;;;;;12.60;5.78;;;;;;;9.95;86.74;98727.94;4969315;28;20039;-82
2022/11/02 04:54:02;;;;;;;5.70;5.13;;;;;;;9.93;86.96;98707.16;4968603;28;20057;-82
2022/11/02 04:56:29;;;;;;;6.93;5.30;;;;;;;9.93;86.84;98713.22;4969297;28;20395;-82
2022/11/02 04:58:58;;;;;;;8.02;5.22;;;;;;;9.91;86.84;98723.06;4969902;28;20038;-81
2022/11/02 05:01:26;;;;;;;9.77;4.97;;;;;;;9.90;86.87;98710.97;4969464;28;20102;-82
2022/11/02 05:03:54;;;;;;;7.43;5.13;;;;;;;9.88;86.30;98733.09;4970345;28;20058;-82
2022/11/02 05:06:22;;;;;;;7.75;4.93;;;;;;;9.85;86.39;98726.41;4969554;28;20043;-82
2022/11/02 05:08:48;;;;;;;8.88;4.88;;;;;;;9.85;86.22;98729.03;4969724;28;20648;-82
2022/11/02 05:11:14;;;;;;;9.45;5.35;;;;;;;9.87;87.04;98732.28;4969830;28;20089;-82
2022/11/02 05:13:40;;;;;;;11.40;5.07;;;;;;;9.86;86.42;98721.97;4970967;28;20043;-82
2022/11/02 05:16:10;;;;;;;8.00;5.03;;;;;;;9.88;86.37;98726.03;4978339;28;20050;-82
2022/11/02 05:18:36;;;;;;;7.30;5.18;;;;;;;9.81;86.37;98719.88;4969845;28;20039;-82
2022/11/02 05:21:01;;;;;;;6.35;4.57;;;;;;;9.86;86.88;98732.47;4969973;28;20047;-83
2022/11/02 05:23:28;;;;;;;7.78;4.70;;;;;;;9.89;87.00;98735.50;4969059;28;20074;-82
2022/11/02 05:26:00;;;;;;;7.00;4.88;;;;;;;9.93;86.72;98738.59;4969733;28;20031;-82
2022/11/02 05:28:27;;;;;;;6.45;4.60;;;;;;;9.90;86.47;98738.97;4965010;28;20030;-83
2022/11/02 05:30:54;;;;;;;11.85;5.28;;;;;;;9.84;86.54;98731.84;4968915;28;20160;-82
2022/11/02 05:33:20;;;;;;;7.22;4.50;;;;;;;9.82;86.47;98732.00;4969175;28;20081;-82
2022/11/02 05:35:46;;;;;;;6.78;5.28;;;;;;;9.78;86.85;98735.16;4969863;28;20046;-82
2022/11/02 05:38:12;;;;;;;6.45;5.10;;;;;;;9.80;86.95;98725.31;4969241;28;20030;-83
2022/11/02 05:40:39;;;;;;;6.63;4.53;;;;;;;9.72;86.42;98736.69;4969152;28;20493;-83
2022/11/02 05:43:09;;;;;;;8.18;4.90;;;;;;;9.65;87.11;98741.84;4968188;28;20550;-83
2022/11/02 05:45:35;;;;;;;8.32;4.97;;;;;;;9.57;87.20;98738.47;4966717;28;20050;-82
2022/11/02 05:48:05;;;;;;;7.68;4.95;;;;;;;9.52;87.73;98746.03;4969698;28;20062;-83
2022/11/02 05:50:31;;;;;;;6.80;4.93;;;;;;;9.47;88.22;98746.53;4970087;28;20417;-82
2022/11/02 05:52:56;;;;;;;9.75;5.30;;;;;;;9.38;88.04;98737.97;4967056;28;20110;-83
2022/11/02 05:55:23;;;;;;;9.10;5.68;;;;;;;9.35;87.95;98751.38;4967319;28;20277;-83
2022/11/02 05:57:54;;;;;;;8.90;5.55;;;;;;;9.37;88.78;98749.44;4969088;28;20038;-82
2022/11/02 06:00:23;;;;;;;7.25;5.13;;;;;;;9.35;88.33;98750.56;4968904;28;20774;-83
2022/11/02 06:02:56;;;;;;;7.63;5.20;;;;;;;9.32;89.03;98759.59;4968490;28;20075;-83
2022/11/02 06:05:23;;;;;;;7.55;5.05;;;;;;;9.30;88.84;98758.97;4968489;28;20573;-82
2022/11/02 06:07:48;;;;;;;9.18;4.55;;;;;;;9.29;88.82;98756.50;4968705;28;20093;-83
2022/11/02 06:10:14;;;;;;;8.18;5.55;;;;;;;9.25;89.47;98766.53;4968279;28;20398;-83
2022/11/02 06:12:39;;;;;;;9.10;5.05;;;;;;;9.19;89.05;98756.75;4969468;28;20038;-82
2022/11/02 06:15:06;;;;;;;6.47;5.15;;;;;;;9.15;88.92;98759.91;4967923;28;20066;-82
2022/11/02 06:17:40;;;;;;;9.70;6.78;;;;;;;9.15;89.85;98771.19;4968328;28;20050;-82
2022/11/02 06:20:07;;;;;;;7.13;5.20;;;;;;;9.12;90.28;98766.31;4968001;28;20082;-82
2022/11/02 06:22:42;;;;;;;7.53;4.85;;;;;;;9.14;89.78;98761.69;4968097;28;20039;-83
2022/11/02 06:25:09;;;;;;;8.45;5.13;;;;;;;9.16;89.76;98774.59;4968988;28;20062;-83
2022/11/02 06:27:35;;;;;;;6.45;4.97;;;;;;;9.15;89.36;98771.19;4968594;28;20031;-83
2022/11/02 06:30:01;;;;;;;4.75;4.20;;;;;;;9.17;89.22;98774.41;4968131;28;20413;-83
2022/11/02 06:32:27;;;;;;;8.70;4.93;;;;;;;9.19;89.52;98782.94;4968433;28;20046;-83
2022/11/02 06:34:52;;;;;;;9.85;5.28;;;;;;;9.21;89.09;98780.94;4968670;28;20030;-83
2022/11/02 06:37:18;;;;;;;5.88;4.43;;;;;;;9.18;89.16;98791.78;4968252;28;20491;-83
2022/11/02 06:39:43;;;;;;;6.18;4.70;;;;;;;9.21;88.84;98788.00;4967070;28;20075;-83
2022/11/02 06:42:09;;;;;;;6.57;4.65;;;;;;;9.18;88.84;98786.53;4967947;28;20034;-83
2022/11/02 06:44:34;;;;;;;7.78;4.82;;;;;;;9.27;89.22;98795.16;4967402;28;20039;-83
2022/11/02 06:47:00;;;;;;;8.27;4.82;;;;;;;9.36;88.52;98794.13;4969652;28;20043;-83
2022/11/02 06:49:25;;;;;;;7.05;4.22;;;;;;;9.49;88.60;98794.34;4967063;28;20035;-83
2022/11/02 06:51:51;;;;;;;9.45;5.00;;;;;;;9.53;87.34;98803.44;4968355;28;20030;-83
2022/11/02 06:54:17;;;;;;;7.32;4.47;;;;;;;9.62;87.49;98801.59;4967409;28;20534;-83
2022/11/02 06:56:42;;;;;;;8.27;4.70;;;;;;;9.71;87.10;98807.56;4968369;28;20039;-83
2022/11/02 06:59:07;;;;;;;6.90;4.30;;;;;;;9.68;86.19;98814.00;4968718;28;20034;-83
2022/11/02 07:01:33;;;;;;;6.32;4.57;;;;;;;9.77;86.41;98815.53;4967698;28;20104;-83
2022/11/02 07:04:00;;;;;;;7.97;5.03;;;;;;;9.88;86.16;98809.06;4968656;28;20045;-83
2022/11/02 07:06:26;;;;;;;11.55;6.55;;;;;;;9.87;86.10;98804.81;4967317;28;20039;-83
2022/11/02 07:08:54;;;;;;;8.07;5.65;;;;;;;9.96;85.89;98819.50;4968049;28;20031;-83
2022/11/02 07:11:20;;;;;;;9.93;5.13;;;;;;;10.01;85.24;98822.38;4968058;28;20122;-83
2022/11/02 07:13:46;;;;;;;11.88;5.63;;;;;;;10.02;85.66;98821.41;4967678;28;20039;-83
2022/11/02 07:16:12;;;;;;;11.30;5.32;;;;;;;10.07;85.79;98824.28;4971745;28;20037;-83
2022/11/02 07:18:38;;;;;;;7.60;5.35;;;;;;;10.16;85.29;98817.16;4971741;28;20035;-83
2022/11/02 07:21:04;;;;;;;8.50;5.47;;;;;;;10.24;85.07;98824.97;4971559;28;20073;-83
2022/11/02 07:23:30;;;;;;;10.02;6.60;;;;;;;10.32;84.73;98827.53;4971515;28;20098;-83
2022/11/02 07:25:56;;;;;;;8.07;4.47;;;;;;;10.39;83.83;98838.09;4971399;28;20070;-83
2022/11/02 07:28:21;;;;;;;8.50;4.72;;;;;;;10.38;83.65;98842.53;4971771;28;20605;-83
2022/11/02 07:30:47;;;;;;;7.32;4.63;;;;;;;10.35;83.66;98849.94;4970952;28;20039;-83
2022/11/02 07:33:12;;;;;;;8.15;5.07;;;;;;;10.44;84.09;98854.94;4971945;28;20070;-82
2022/11/02 07:35:38;;;;;;;7.10;4.20;;;;;;;10.56;83.26;98849.25;4971683;28;20125;-83
2022/11/02 07:38:06;;;;;;;6.65;4.25;;;;;;;10.57;83.40;98853.50;4969334;28;20041;-83
2022/11/02 07:40:35;;;;;;;8.30;4.78;;;;;;;10.58;83.41;98847.25;4971444;28;20086;-83
2022/11/02 07:43:01;;;;;;;13.75;5.97;;;;;;;10.80;82.84;98851.59;4972110;28;20505;-82
2022/11/02 07:45:28;;;;;;;12.57;5.43;;;;;;;11.01;82.38;98850.00;4968896;28;20045;-82
2022/11/02 07:47:54;;;;;;;12.80;5.72;;;;;;;11.19;81.59;98855.66;4967417;28;20050;-82
2022/11/02 07:50:23;;;;;;;9.73;5.40;;;;;;;11.42;81.99;98858.97;4971217;28;20031;-82
2022/11/02 07:52:55;;;;;;;10.45;4.82;;;;;;;11.65;81.57;98860.59;4970154;28;20398;-83
2022/11/02 07:55:27;;;;;;;9.43;4.55;;;;;;;11.75;80.74;98863.72;4970144;28;20034;-82
2022/11/02 07:58:02;;;;;;;7.32;4.43;;;;;;;11.83;80.70;98866.25;4969565;28;20038;-82
2022/11/02 08:00:33;;;;;;;6.20;4.15;;;;;;;11.91;80.30;98865.31;4970967;28;20041;-82
2022/11/02 08:03:01;;;;;;;9.32;4.28;;;;;;;11.93;78.27;98879.88;4968026;28;20038;-82
2022/11/02 08:05:29;;;;;;;7.22;3.90;;;;;;;11.96;80.02;98869.00;4969799;28;20035;-82
2022/11/02 08:08:22;;;;;;;9.48;3.83;;;;;;;12.02;79.01;98884.00;4970549;28;20090;-82
2022/11/02 08:10:51;;;;;;;6.13;3.70;;;;;;;12.05;77.76;98877.56;4969090;28;20050;-82
2022/11/02 08:13:21;;;;;;;6.20;3.65;;;;;;;12.07;78.27;98875.56;4970961;28;20038;-83
2022/11/02 08:15:52;;;;;;;4.40;3.07;;;;;;;11.90;76.85;98888.16;4985373;28;20043;-82
2022/11/02 08:18:22;;;;;;;7.60;2.95;;;;;;;11.95;78.25;98877.09;4970339;28;20045;-82
2022/11/02 08:20:49;;;;;;;7.18;3.45;;;;;;;12.00;77.54;98883.41;4970791;28;20050;-82
2022/11/02 08:23:17;;;;;;;5.07;3.13;;;;;;;12.01;79.13;98871.88;4985148;28;20482;-82
2022/11/02 08:25:45;;;;;;;5.15;3.20;;;;;;;12.10;78.91;98883.06;4970455;28;20040;-82
2022/11/02 08:28:27;;;;;;;6.25;2.85;;;;;;;12.19;77.95;98891.66;4969822;28;21023;-82
2022/11/02 08:30:53;;;;;;;4.30;2.67;;;;;;;12.25;78.58;98898.78;4969241;28;20178;-82
2022/11/02 08:33:20;;;;;;;6.93;2.90;;;;;;;12.24;77.11;98897.97;4970209;28;20134;-82
2022/11/02 08:35:47;;;;;;;4.82;2.50;;;;;;;12.19;77.01;98902.97;4969914;28;20521;-82
2022/11/02 08:38:13;;;;;;;5.15;2.80;;;;;;;12.15;78.02;98899.09;4970768;28;20471;-82
2022/11/02 08:40:40;;;;;;;4.57;2.85;;;;;;;12.19;78.97;98895.09;4970376;28;20157;-82
2022/11/02 08:43:11;;;;;;;4.63;2.78;;;;;;;12.05;77.11;98907.31;4970055;28;20058;-82
2022/11/02 08:45:40;;;;;;;4.93;2.58;;;;;;;12.04;78.22;98903.03;4965938;28;20038;-82
2022/11/02 08:48:07;;;;;;;5.43;2.60;;;;;;;12.02;78.24;98902.41;4969142;28;20549;-83
2022/11/02 08:50:33;;;;;;;7.70;3.22;;;;;;;12.08;78.88;98905.31;4970026;28;20038;-82
2022/11/02 08:52:59;;;;;;;4.60;2.13;;;;;;;12.18;77.59;98905.81;4969695;28;20109;-82
2022/11/02 08:55:25;;;;;;;6.70;2.40;;;;;;;12.23;77.86;98906.84;4970145;28;20490;-83
2022/11/02 08:57:56;;;;;;;6.35;2.38;;;;;;;12.18;76.16;98908.44;4968477;28;20046;-82
2022/11/02 09:00:29;;;;;;;5.97;2.38;;;;;;;12.16;77.22;98910.41;4969562;28;20505;-82
2022/11/02 09:03:01;;;;;;;5.22;1.90;;;;;;;12.13;76.00;98914.25;4970058;28;20031;-82
2022/11/02 09:05:30;;;;;;;9.27;2.70;;;;;;;12.24;77.30;98908.47;4968657;28;20097;-82
2022/11/02 09:08:05;;;;;;;4.43;2.20;;;;;;;12.38;77.43;98905.94;4968496;28;20042;-82
2022/11/02 09:10:35;;;;;;;5.82;2.10;;;;;;;12.41;77.28;98916.88;4968823;28;20046;-82
2022/11/02 09:13:04;;;;;;;6.43;2.30;;;;;;;12.49;76.76;98902.78;4967857;28;20034;-82
2022/11/02 09:15:32;;;;;;;6.80;2.38;;;;;;;12.56;76.47;98912.34;4968635;28;20038;-82
2022/11/02 09:17:58;;;;;;;6.68;2.05;;;;;;;12.51;76.14;98920.00;4968663;28;20034;-83
2022/11/02 09:20:24;;;;;;;8.52;2.30;;;;;;;12.47;76.54;98918.75;4969226;28;20037;-83
2022/11/02 09:22:50;;;;;;;5.10;2.08;;;;;;;12.53;76.85;98917.16;4964119;28;20548;-83
2022/11/02 09:25:16;;;;;;;9.02;2.10;;;;;;;12.70;75.96;98912.44;4970315;28;20538;-83
2022/11/02 09:27:42;;;;;;;4.80;1.75;;;;;;;12.92;75.88;98916.63;4969611;28;20035;-83
2022/11/02 09:30:10;;;;;;;5.93;1.90;;;;;;;12.96;74.80;98915.22;4969596;28;20054;-83
2022/11/02 09:32:37;;;;;;;5.45;1.90;;;;;;;13.03;75.74;98908.16;4969450;28;20376;-82
2022/11/02 09:35:11;;;;;;;5.90;2.05;;;;;;;13.13;74.88;98908.63;4969566;28;20035;-83
2022/11/02 09:37:37;;;;;;;5.15;1.75;;;;;;;13.27;75.09;98913.97;4969023;28;20030;-83
2022/11/02 09:40:06;;;;;;;5.75;1.85;;;;;;;13.44;73.01;98904.72;4970508;28;20089;-82
2022/11/02 09:42:49;;;;;;;6.80;1.92;;;;;;;13.47;73.91;98914.84;4969516;28;20534;-83
2022/11/02 09:45:19;;;;;;;6.35;2.28;;;;;;;13.57;74.23;98922.41;4967276;28;20117;-82
2022/11/02 09:48:17;;;;;;;5.43;1.80;;;;;;;13.48;71.93;98915.66;4969671;28;20042;-82
2022/11/02 09:51:20;;;;;;;4.80;1.38;;;;;;;13.59;72.97;98915.91;4969597;28;20454;-82
2022/11/02 09:53:49;;;;;;;3.67;1.67;;;;;;;13.63;73.55;98918.97;4965897;28;20053;-82
2022/11/02 09:56:18;;;;;;;4.80;1.70;;;;;;;13.65;72.21;98919.56;4984816;28;20058;-83
2022/11/02 09:58:54;;;;;;;2.90;1.20;;;;;;;13.52;70.91;98922.97;4967819;28;20039;-81
2022/11/02 10:01:38;;;;;;;7.63;1.63;;;;;;;13.41;70.60;98922.75;4968612;28;20062;-81
2022/11/02 10:04:20;;;;;;;6.13;1.50;;;;;;;13.51;71.71;98921.34;4969576;28;20035;-82
2022/11/02 10:07:35;;;;;;;4.43;1.70;;;;;;;13.46;70.83;98918.50;4969347;28;20522;-83
2022/11/02 10:10:09;;;;;;;5.38;1.60;;;;;;;13.55;71.29;98927.03;4959940;28;20071;-83
2022/11/02 10:12:41;;;;;;;8.30;1.75;;;;;;;13.46;70.30;98925.59;4969574;28;20038;-82
2022/11/02 10:15:28;;;;;;;8.40;1.50;;;;;;;13.42;70.32;98922.53;4969844;28;20086;-83
2022/11/02 10:17:59;;;;;;;6.72;1.50;;;;;;;13.38;70.82;98918.69;4969026;28;20077;-82
2022/11/02 10:20:52;;;;;;;4.47;1.88;;;;;;;13.26;70.76;98938.69;4969017;28;20094;-82
2022/11/02 10:23:33;;;;;;;6.30;2.08;;;;;;;13.35;71.82;98924.34;4965069;28;20068;-82
2022/11/02 10:26:01;;;;;;;4.90;1.60;;;;;;;13.39;70.69;98917.66;4969534;28;20070;-83
2022/11/02 10:28:39;;;;;;;4.53;1.48;;;;;;;13.30;70.67;98926.75;4968924;28;20034;-83
2022/11/02 10:31:29;;;;;;;4.43;1.38;;;;;;;13.32;71.07;98916.84;4969409;28;20055;-83
2022/11/02 10:33:59;;;;;;;6.53;1.57;;;;;;;13.27;71.12;98925.31;4984053;28;20037;-83
2022/11/02 10:36:58;;;;;;;5.43;1.70;;;;;;;13.28;71.63;98920.88;4983481;28;20117;-83
2022/11/02 10:39:42;;;;;;;6.32;1.90;;;;;;;13.35;71.22;98926.97;4968470;28;20047;-82
2022/11/02 10:42:41;;;;;;;4.70;1.60;;;;;;;13.30;71.19;98919.66;4965604;28;20078;-82
2022/11/02 10:45:56;;;;;;;4.50;1.48;;;;;;;13.31;70.63;98925.72;4981211;28;20034;-82
2022/11/02 10:49:09;;;;;;;5.13;1.67;;;;;;;13.37;70.38;98925.78;4968390;28;20034;-82
2022/11/02 10:51:35;;;;;;;5.57;1.70;;;;;;;13.35;71.01;98922.50;4985047;28;20506;-83
2022/11/02 10:54:00;;;;;;;4.40;1.75;;;;;;;13.29;70.22;98918.03;4972997;28;20038;-82
2022/11/02 10:56:31;;;;;;;6.53;1.85;;;;;;;13.38;70.48;98918.69;4972313;28;20050;-82
2022/11/02 10:59:15;;;;;;;;;;;;;;;13.39;69.33;98917.66;4969654;28;20046;-83
2022/11/02 11:02:12;;;;;;;7.70;1.77;;;;;;;13.51;69.11;98921.34;4971944;28;19921;-82
2022/11/02 11:04:39;;;;;;;4.38;1.92;;;;;;;13.58;68.72;98909.00;4968319;28;20046;-83
2022/11/02 11:07:13;;;;;;;5.22;1.75;;;;;;;13.65;68.92;98920.38;4972690;28;20146;-83
2022/11/02 11:09:59;;;;;;;4.45;1.88;;;;;;;13.77;67.98;98919.78;4971173;28;20042;-83
2022/11/02 11:12:37;;;;;;;4.70;1.92;;;;;;;13.82;66.52;98914.75;4970447;28;20054;-83
2022/11/02 11:15:05;;;;;;;7.13;2.17;;;;;;;13.94;65.34;98902.59;4972056;28;20066;-83
2022/11/02 11:17:39;;;;;;;8.70;2.47;;;;;;;13.95;64.99;98906.84;4972098;28;20513;-83
2022/11/02 11:20:29;;;;;;;6.28;1.67;;;;;;;13.89;64.90;98899.72;4971934;28;20049;-82
2022/11/02 11:23:24;;;;;;;5.35;1.95;;;;;;;13.79;65.50;98910.66;4972142;28;20054;-81
2022/11/02 11:26:27;;;;;;;4.70;2.05;;;;;;;13.93;66.42;98908.88;4970633;28;20026;-82
2022/11/02 11:28:56;;;;;;;3.67;1.65;;;;;;;14.06;66.52;98903.59;4971566;28;20152;-82
2022/11/02 11:31:23;;;;;;;2.58;1.70;;;;;;;14.16;64.94;98917.22;4986161;28;20073;-82
2022/11/02 11:33:58;;;;;;;6.55;1.85;;;;;;;14.15;64.60;98915.59;4971832;28;20407;-83
2022/11/02 11:36:29;;;;;;;6.38;2.20;;;;;;;14.22;64.03;98920.88;4971175;28;20035;-83
2022/11/02 11:39:02;;;;;;;6.80;1.88;;;;;;;14.13;62.10;98930.81;4971731;28;20501;-83
2022/11/02 11:41:32;;;;;;;7.07;1.60;;;;;;;14.09;62.42;98920.84;4969778;28;20039;-83
2022/11/02 11:44:00;;;;;;;6.38;1.75;;;;;;;14.01;61.91;98921.84;4969569;28;20058;-83
2022/11/02 11:46:44;;;;;;;7.38;1.80;;;;;;;13.84;62.29;98916.16;4968534;28;20055;-83
2022/11/02 11:49:47;;;;;;;4.15;1.80;;;;;;;13.93;64.07;98914.16;4985120;28;20493;-83
2022/11/02 11:52:22;;;;;;;5.97;1.77;;;;;;;13.72;62.00;98924.84;4971604;28;20467;-84
2022/11/02 11:55:27;;;;;;;6.57;1.90;;;;;;;13.64;63.48;98916.13;4971816;28;20454;-83
2022/11/02 11:58:28;;;;;;;6.03;1.98;;;;;;;13.73;63.43;98923.84;4967906;28;20163;-84
2022/11/02 12:01:03;;;;;;;4.88;1.88;;;;;;;13.98;63.07;98913.56;4968338;28;20043;-83
2022/11/02 12:03:28;;;;;;;5.75;1.50;;;;;;;14.10;61.43;98917.22;4969491;28;20122;-83
2022/11/02 12:06:20;;;;;;;7.72;1.98;;;;;;;14.15;61.12;98920.88;4971082;28;20434;-84
2022/11/02 12:09:32;;;;;;;9.93;2.20;;;;;;;14.24;61.62;98920.66;4971281;28;20034;-83
2022/11/02 12:13:16;;;;;;;3.85;1.58;;;;;;;14.35;60.44;98912.94;4969573;28;20069;-83
2022/11/02 12:16:04;;;;;;;6.63;2.40;;;;;;;14.56;58.88;98925.13;4929900;29;20160;-83